createdAt,value
2022-08-17T00:02:26.259Z,8.57
2022-08-17T00:04:55.003Z,7.07
2022-08-17T00:07:22.376Z,10.02
2022-08-17T00:09:49.345Z,8.20
2022-08-17T00:12:41.114Z,8.45
2022-08-17T00:15:06.228Z,8.23
2022-08-17T00:17:37.534Z,8.60
2022-08-17T00:20:05.101Z,8.98
2022-08-17T00:22:36.316Z,8.50
2022-08-17T00:25:12.064Z,8.05
2022-08-17T00:27:39.285Z,8.23
2022-08-17T00:30:07.726Z,8.57
2022-08-17T00:33:23.066Z,7.78
2022-08-17T00:35:31.853Z,8.23
2022-08-17T00:37:58.707Z,8.95
2022-08-17T00:40:25.545Z,8.50
2022-08-17T00:42:53.465Z,8.40
2022-08-17T00:45:20.849Z,8.35
2022-08-17T00:47:48.490Z,8.80
2022-08-17T00:50:17.941Z,8.60
2022-08-17T00:52:54.764Z,8.27
2022-08-17T00:55:23.866Z,8.38
2022-08-17T00:57:55.523Z,8.95
2022-08-17T01:00:26.856Z,8.13
2022-08-17T01:03:00.444Z,9.07
2022-08-17T01:05:30.919Z,8.25
2022-08-17T01:08:00.244Z,9.15
2022-08-17T01:10:58.691Z,9.57
2022-08-17T01:13:31.245Z,10.13
2022-08-17T01:16:06.728Z,9.32
2022-08-17T01:18:34.738Z,8.50
2022-08-17T01:21:14.084Z,8.80
2022-08-17T01:23:42.607Z,9.15
2022-08-17T01:26:09.428Z,8.95
2022-08-17T01:28:54.328Z,9.25
2022-08-17T01:31:23.975Z,9.05
2022-08-17T01:33:51.476Z,9.50
2022-08-17T01:36:18.283Z,14.48
2022-08-17T01:38:45.063Z,10.13
2022-08-17T01:41:15.615Z,9.15
2022-08-17T01:43:57.477Z,9.50
2022-08-17T01:46:29.892Z,9.77
2022-08-17T01:48:58.169Z,9.82
2022-08-17T01:51:27.874Z,9.02
2022-08-17T01:53:58.727Z,9.95
2022-08-17T01:56:27.947Z,9.52
2022-08-17T01:58:55.634Z,9.27
2022-08-17T02:01:27.859Z,9.77
2022-08-17T02:03:59.778Z,9.32
2022-08-17T02:06:47.125Z,9.50
2022-08-17T02:09:23.410Z,9.32
2022-08-17T02:11:54.232Z,9.52
2022-08-17T02:14:22.704Z,9.05
2022-08-17T02:16:49.813Z,10.23
2022-08-17T02:19:16.985Z,8.65
2022-08-17T02:21:47.140Z,9.68
2022-08-17T02:24:58.160Z,9.95
2022-08-17T02:27:07.378Z,9.13
2022-08-17T02:29:34.262Z,9.15
2022-08-17T02:32:02.027Z,8.98
2022-08-17T02:34:30.005Z,8.55
2022-08-17T02:36:56.812Z,9.05
2022-08-17T02:39:24.148Z,8.52
2022-08-17T02:41:59.808Z,8.98
2022-08-17T02:44:39.023Z,9.70
2022-08-17T02:47:08.717Z,8.55
2022-08-17T02:49:36.282Z,8.90
2022-08-17T02:52:04.518Z,10.13
2022-08-17T02:54:40.210Z,9.32
2022-08-17T02:57:09.104Z,9.80
2022-08-17T02:59:36.274Z,9.70
2022-08-17T03:02:04.410Z,8.63
2022-08-17T03:04:31.722Z,9.10
2022-08-17T03:07:02.752Z,9.52
2022-08-17T03:09:29.944Z,9.27
2022-08-17T03:12:04.584Z,8.57
2022-08-17T03:14:32.449Z,8.60
2022-08-17T03:16:59.692Z,8.57
2022-08-17T03:19:26.868Z,9.43
2022-08-17T03:21:54.957Z,9.70
2022-08-17T03:24:28.592Z,9.30
2022-08-17T03:26:56.380Z,9.10
2022-08-17T03:29:23.839Z,9.70
2022-08-17T03:31:52.346Z,9.05
2022-08-17T03:34:20.070Z,9.93
2022-08-17T03:36:47.333Z,8.75
2022-08-17T03:39:14.529Z,8.70
2022-08-17T03:41:41.718Z,9.27
2022-08-17T03:44:09.074Z,8.57
2022-08-17T03:46:55.745Z,10.35
2022-08-17T03:49:42.187Z,9.43
2022-08-17T03:52:28.182Z,9.18
2022-08-17T03:55:36.421Z,8.63
2022-08-17T03:58:04.490Z,9.38
2022-08-17T04:00:31.794Z,9.65
2022-08-17T04:02:58.990Z,9.68
2022-08-17T04:05:26.420Z,9.07
2022-08-17T04:07:53.599Z,9.77
2022-08-17T04:10:24.749Z,9.98
2022-08-17T04:12:54.803Z,9.52
2022-08-17T04:15:23.080Z,9.23
2022-08-17T04:17:50.499Z,10.20
2022-08-17T04:20:18.489Z,9.95
2022-08-17T04:22:57.967Z,9.63
2022-08-17T04:25:25.207Z,14.68
2022-08-17T04:27:52.414Z,11.75
2022-08-17T04:30:19.754Z,10.73
2022-08-17T04:33:00.689Z,10.30
2022-08-17T04:35:35.741Z,10.32
2022-08-17T04:38:02.963Z,10.27
2022-08-17T04:40:48.695Z,9.90
2022-08-17T04:43:20.639Z,10.05
2022-08-17T04:45:55.013Z,10.85
2022-08-17T04:48:23.973Z,10.10
2022-08-17T04:51:02.004Z,10.20
2022-08-17T04:53:29.260Z,10.23
2022-08-17T04:55:58.960Z,10.55
2022-08-17T04:58:26.139Z,10.00
2022-08-17T05:00:53.373Z,10.15
2022-08-17T05:03:20.781Z,10.55
2022-08-17T05:05:49.999Z,10.60
2022-08-17T05:08:19.555Z,10.57
2022-08-17T05:10:47.982Z,10.10
2022-08-17T05:13:20.255Z,10.20
2022-08-17T05:15:48.444Z,9.93
2022-08-17T05:18:16.257Z,9.70
2022-08-17T05:20:43.770Z,9.45
2022-08-17T05:23:12.856Z,9.63
2022-08-17T05:25:41.920Z,9.48
2022-08-17T05:28:13.690Z,9.23
2022-08-17T05:30:42.765Z,9.52
2022-08-17T05:33:12.432Z,9.20
2022-08-17T05:35:42.570Z,8.30
2022-08-17T05:38:09.785Z,9.25
2022-08-17T05:40:37.292Z,9.30
2022-08-17T05:43:24.251Z,9.30
2022-08-17T05:46:01.109Z,8.85
2022-08-17T05:48:36.791Z,7.80
2022-08-17T05:51:06.994Z,8.85
2022-08-17T05:53:49.909Z,8.70
2022-08-17T05:56:29.266Z,10.98
2022-08-17T05:59:09.865Z,14.85
2022-08-17T06:01:55.687Z,9.48
2022-08-17T06:04:23.064Z,10.80
2022-08-17T06:06:59.260Z,8.88
2022-08-17T06:09:31.501Z,8.85
2022-08-17T06:12:07.518Z,8.52
2022-08-17T06:14:41.561Z,6.47
2022-08-17T06:17:13.548Z,6.07
2022-08-17T06:19:51.585Z,5.85
2022-08-17T06:22:21.434Z,5.80
2022-08-17T06:24:56.753Z,6.68
2022-08-17T06:27:30.385Z,6.60
2022-08-17T06:30:19.738Z,6.05
2022-08-17T06:32:48.050Z,6.72
2022-08-17T06:35:18.503Z,6.05
2022-08-17T06:38:04.657Z,6.55
2022-08-17T06:40:45.716Z,6.68
2022-08-17T06:43:34.586Z,6.60
2022-08-17T06:46:11.667Z,5.30
2022-08-17T06:48:44.982Z,5.80
2022-08-17T06:51:18.791Z,5.68
2022-08-17T06:53:45.972Z,5.68
2022-08-17T06:56:52.987Z,5.07
2022-08-17T06:59:25.299Z,5.40
2022-08-17T07:01:53.985Z,5.88
2022-08-17T07:04:23.505Z,5.30
2022-08-17T07:06:53.829Z,6.68
2022-08-17T07:09:30.240Z,5.70
2022-08-17T07:12:09.959Z,6.00
2022-08-17T07:14:40.994Z,5.88
2022-08-17T07:17:16.717Z,6.45
2022-08-17T07:19:47.653Z,7.20
2022-08-17T07:22:21.983Z,8.50
2022-08-17T07:24:53.501Z,8.00
2022-08-17T07:27:21.383Z,10.15
2022-08-17T07:29:49.550Z,9.50
2022-08-17T07:32:19.818Z,10.30
2022-08-17T07:35:05.107Z,9.07
2022-08-17T07:37:33.330Z,8.55
2022-08-17T07:40:16.147Z,9.68
2022-08-17T07:42:55.088Z,8.93
2022-08-17T07:45:40.930Z,10.05
2022-08-17T07:48:20.050Z,10.93
2022-08-17T07:50:47.586Z,10.75
2022-08-17T07:53:18.824Z,11.25
2022-08-17T07:55:46.085Z,11.32
2022-08-17T07:58:20.733Z,11.13
2022-08-17T08:01:04.449Z,10.20
2022-08-17T08:03:34.020Z,10.98
2022-08-17T08:06:03.346Z,12.18
2022-08-17T08:08:36.262Z,13.02
2022-08-17T08:11:11.714Z,12.93
2022-08-17T08:13:42.738Z,13.73
2022-08-17T08:16:20.887Z,14.23
2022-08-17T08:18:56.920Z,13.88
2022-08-17T08:21:29.435Z,13.77
2022-08-17T08:24:01.689Z,14.07
2022-08-17T08:26:38.630Z,13.75
2022-08-17T08:29:28.240Z,13.38
2022-08-17T08:32:14.319Z,14.80
2022-08-17T08:35:05.416Z,13.57
2022-08-17T08:37:43.460Z,14.05
2022-08-17T08:40:23.319Z,13.15
2022-08-17T08:42:53.421Z,13.40
2022-08-17T08:45:26.229Z,14.65
2022-08-17T08:48:23.092Z,13.00
2022-08-17T08:51:00.858Z,12.38
2022-08-17T08:53:47.768Z,14.98
2022-08-17T08:56:21.115Z,14.00
2022-08-17T08:58:51.205Z,14.15
2022-08-17T09:01:41.448Z,15.13
2022-08-17T09:04:27.731Z,14.95
2022-08-17T09:07:05.278Z,14.68
2022-08-17T09:09:44.825Z,14.55
2022-08-17T09:12:18.409Z,16.55
2022-08-17T09:14:52.397Z,16.55
2022-08-17T09:17:21.554Z,17.05
2022-08-17T09:20:04.747Z,16.95
2022-08-17T09:22:37.976Z,15.60
2022-08-17T09:25:16.488Z,17.65
2022-08-17T09:28:06.912Z,15.68
2022-08-17T09:30:43.518Z,16.50
2022-08-17T09:33:12.212Z,16.48
2022-08-17T09:35:41.649Z,18.30
2022-08-17T09:38:22.105Z,18.30
2022-08-17T09:40:52.445Z,18.23
2022-08-17T09:43:38.341Z,17.98
2022-08-17T09:46:11.343Z,17.15
2022-08-17T09:48:41.284Z,18.42
2022-08-17T09:51:13.618Z,17.58
2022-08-17T09:53:41.454Z,17.92
2022-08-17T09:56:08.790Z,19.88
2022-08-17T09:58:45.028Z,19.52
2022-08-17T10:01:35.421Z,19.45
2022-08-17T10:04:20.048Z,21.38
2022-08-17T10:07:06.706Z,20.27
2022-08-17T10:09:40.251Z,20.75
2022-08-17T10:12:17.902Z,21.73
2022-08-17T10:14:53.544Z,22.95
2022-08-17T10:17:42.999Z,21.75
2022-08-17T10:20:10.388Z,25.17
2022-08-17T10:23:00.332Z,24.75
2022-08-17T10:25:55.132Z,24.23
2022-08-17T10:28:28.915Z,23.92
2022-08-17T10:31:17.021Z,23.15
2022-08-17T10:33:53.433Z,25.90
2022-08-17T10:36:27.211Z,27.02
2022-08-17T10:39:10.607Z,27.50
2022-08-17T10:41:44.170Z,26.92
2022-08-17T10:44:37.452Z,28.15
2022-08-17T10:47:15.795Z,28.48
2022-08-17T10:49:47.830Z,29.52
2022-08-17T10:52:26.140Z,28.40
2022-08-17T10:54:59.117Z,29.42
2022-08-17T10:57:32.212Z,30.23
2022-08-17T11:00:00.458Z,32.20
2022-08-17T11:02:33.408Z,29.33
2022-08-17T11:05:22.281Z,26.90
2022-08-17T11:07:49.655Z,29.80
2022-08-17T11:10:25.369Z,29.38
2022-08-17T11:13:07.891Z,28.15
2022-08-17T11:15:51.319Z,28.25
2022-08-17T11:18:22.243Z,28.75
2022-08-17T11:20:59.579Z,31.13
2022-08-17T11:23:29.682Z,35.15
2022-08-17T11:26:08.577Z,31.15
2022-08-17T11:28:46.454Z,31.92
2022-08-17T11:31:39.117Z,32.85
2022-08-17T11:34:13.585Z,32.80
2022-08-17T11:36:53.154Z,32.60
2022-08-17T11:39:26.161Z,35.60
2022-08-17T11:41:53.616Z,34.70
2022-08-17T11:44:39.126Z,34.78
2022-08-17T11:47:28.013Z,35.95
2022-08-17T11:50:22.456Z,34.45
2022-08-17T11:52:52.150Z,37.17
2022-08-17T11:55:39.317Z,35.90
2022-08-17T11:58:09.200Z,38.45
2022-08-17T12:00:45.410Z,38.08
2022-08-17T12:03:25.089Z,40.63
2022-08-17T12:06:00.993Z,40.88
2022-08-17T12:08:30.406Z,39.92
2022-08-17T12:10:57.577Z,37.55
2022-08-17T12:13:27.406Z,40.58
2022-08-17T12:16:07.202Z,36.83
2022-08-17T12:18:35.807Z,36.55
2022-08-17T12:21:22.181Z,39.97
2022-08-17T12:23:57.637Z,40.13
2022-08-17T12:26:30.992Z,39.00
2022-08-17T12:29:01.123Z,42.40
2022-08-17T12:31:58.334Z,39.95
2022-08-17T12:34:27.391Z,41.97
2022-08-17T12:36:59.782Z,41.78
2022-08-17T12:39:27.873Z,42.08
2022-08-17T12:42:02.781Z,42.75
2022-08-17T12:44:32.242Z,41.90
2022-08-17T12:47:04.774Z,43.00
2022-08-17T12:49:32.007Z,44.72
2022-08-17T12:52:06.111Z,41.72
2022-08-17T12:54:51.803Z,43.03
2022-08-17T12:57:21.431Z,41.10
2022-08-17T12:59:51.185Z,45.50
2022-08-17T13:02:39.446Z,44.78
2022-08-17T13:05:08.353Z,44.20
2022-08-17T13:07:42.646Z,39.08
2022-08-17T13:10:16.052Z,41.50
2022-08-17T13:12:43.479Z,38.05
2022-08-17T13:15:18.384Z,38.13
2022-08-17T13:17:56.645Z,37.72
2022-08-17T13:20:23.861Z,38.30
2022-08-17T13:22:55.933Z,37.97
2022-08-17T13:25:23.414Z,37.97
2022-08-17T13:27:52.842Z,39.72
2022-08-17T13:30:24.631Z,44.60
2022-08-17T13:32:53.939Z,37.47
2022-08-17T13:35:33.006Z,40.70
2022-08-17T13:38:06.869Z,38.67
2022-08-17T13:40:41.596Z,35.22
2022-08-17T13:43:09.471Z,36.83
2022-08-17T13:45:39.617Z,36.65
2022-08-17T13:48:12.412Z,40.00
2022-08-17T13:50:56.583Z,39.63
2022-08-17T13:53:40.222Z,40.83
2022-08-17T13:56:37.008Z,38.92
2022-08-17T13:58:55.339Z,40.92
2022-08-17T14:01:33.534Z,42.25
2022-08-17T14:04:02.108Z,43.55
2022-08-17T14:06:51.740Z,44.50
2022-08-17T14:09:21.657Z,44.80
2022-08-17T14:11:49.685Z,44.45
2022-08-17T14:14:17.195Z,41.95
2022-08-17T14:16:44.525Z,42.15
2022-08-17T14:19:13.140Z,42.47
2022-08-17T14:21:42.913Z,45.08
2022-08-17T14:24:21.127Z,41.85
2022-08-17T14:26:48.716Z,40.85
2022-08-17T14:29:15.760Z,46.10
2022-08-17T14:31:42.814Z,44.22
2022-08-17T14:34:20.727Z,45.55
2022-08-17T14:36:48.856Z,43.95
2022-08-17T14:39:16.728Z,44.47
2022-08-17T14:41:44.417Z,43.85
2022-08-17T14:44:12.773Z,40.85
2022-08-17T14:46:41.053Z,38.13
2022-08-17T14:49:12.177Z,40.08
2022-08-17T14:51:44.082Z,40.33
2022-08-17T14:54:33.076Z,38.58
2022-08-17T14:57:24.867Z,34.97
2022-08-17T14:59:49.224Z,37.78
2022-08-17T15:02:29.751Z,31.60
2022-08-17T15:05:04.348Z,32.70
2022-08-17T15:07:31.940Z,34.60
2022-08-17T15:10:02.637Z,34.30
2022-08-17T15:12:34.647Z,33.05
2022-08-17T15:15:04.721Z,32.08
2022-08-17T15:17:44.333Z,37.00
2022-08-17T15:20:27.878Z,31.15
2022-08-17T15:22:56.103Z,28.92
2022-08-17T15:25:24.955Z,29.52
2022-08-17T15:27:52.450Z,30.75
2022-08-17T15:30:19.740Z,28.55
2022-08-17T15:32:51.256Z,27.30
2022-08-17T15:35:27.426Z,27.77
2022-08-17T15:38:06.207Z,25.95
2022-08-17T15:40:37.493Z,25.30
2022-08-17T15:43:22.027Z,25.60
2022-08-17T15:46:05.036Z,25.92
2022-08-17T15:48:42.946Z,30.17
2022-08-17T15:51:26.385Z,31.55
2022-08-17T15:53:55.820Z,26.30
2022-08-17T15:56:23.476Z,33.05
2022-08-17T15:58:50.273Z,31.02
2022-08-17T16:02:33.657Z,31.45
2022-08-17T16:04:26.407Z,35.75
2022-08-17T16:06:54.839Z,35.25
2022-08-17T16:09:21.621Z,33.95
2022-08-17T16:11:53.736Z,32.53
2022-08-17T16:14:23.178Z,39.17
2022-08-17T16:16:51.644Z,35.75
2022-08-17T16:19:18.461Z,34.88
2022-08-17T16:21:45.247Z,33.00
2022-08-17T16:24:13.454Z,34.80
2022-08-17T16:26:40.727Z,36.92
2022-08-17T16:29:08.480Z,39.08
2022-08-17T16:31:36.354Z,39.15
2022-08-17T16:34:16.838Z,37.60
2022-08-17T16:36:54.779Z,37.10
2022-08-17T16:39:23.021Z,34.67
2022-08-17T16:41:50.273Z,37.75
2022-08-17T16:44:21.323Z,39.53
2022-08-17T16:46:50.262Z,36.15
2022-08-17T16:49:36.216Z,36.25
2022-08-17T16:52:12.808Z,35.60
2022-08-17T16:54:43.811Z,35.70
2022-08-17T16:57:11.948Z,33.17
2022-08-17T16:59:42.717Z,34.42
2022-08-17T17:02:11.480Z,35.08
2022-08-17T17:04:43.536Z,34.40
2022-08-17T17:07:34.090Z,38.80
2022-08-17T17:10:14.940Z,92.15
2022-08-17T17:13:03.695Z,230.00
2022-08-17T17:15:34.661Z,187.93
2022-08-17T17:18:06.996Z,391.75
2022-08-17T17:20:40.038Z,225.55
2022-08-17T17:23:16.165Z,38.92
2022-08-17T17:25:55.475Z,33.28
2022-08-17T17:28:25.824Z,32.63
2022-08-17T17:30:56.713Z,36.90
2022-08-17T17:33:32.811Z,39.95
2022-08-17T17:36:06.912Z,36.80
2022-08-17T17:38:39.500Z,34.00
2022-08-17T17:41:09.322Z,31.23
2022-08-17T17:43:40.059Z,29.85
2022-08-17T17:46:28.219Z,31.17
2022-08-17T17:48:57.024Z,30.48
2022-08-17T17:52:06.719Z,27.92
2022-08-17T17:54:33.787Z,29.27
2022-08-17T17:57:07.584Z,30.42
2022-08-17T17:59:44.118Z,32.55
2022-08-17T18:02:59.617Z,30.45
2022-08-17T18:05:29.836Z,27.83
2022-08-17T18:08:10.636Z,31.42
2022-08-17T18:10:48.975Z,30.67
2022-08-17T18:13:16.370Z,37.72
2022-08-17T18:15:51.493Z,28.95
2022-08-17T18:18:37.725Z,26.92
2022-08-17T18:21:16.377Z,31.60
2022-08-17T18:23:53.353Z,27.23
2022-08-17T18:26:36.559Z,28.48
2022-08-17T18:29:24.526Z,26.40
2022-08-17T18:32:10.558Z,29.83
2022-08-17T18:34:47.357Z,32.25
2022-08-17T18:37:30.204Z,28.48
2022-08-17T18:39:57.651Z,29.42
2022-08-17T18:42:28.928Z,57.97
2022-08-17T18:44:56.528Z,63.33
2022-08-17T18:47:23.717Z,33.58
2022-08-17T18:49:58.572Z,27.77
2022-08-17T18:52:30.502Z,24.90
2022-08-17T18:55:00.556Z,25.13
2022-08-17T18:57:34.877Z,27.13
2022-08-17T19:00:10.877Z,29.05
2022-08-17T19:02:50.462Z,27.77
2022-08-17T19:05:29.976Z,26.33
2022-08-17T19:08:15.173Z,26.20
2022-08-17T19:10:46.808Z,25.98
2022-08-17T19:13:24.307Z,23.90
2022-08-17T19:16:12.190Z,24.38
2022-08-17T19:18:47.437Z,23.48
2022-08-17T19:21:26.324Z,23.85
2022-08-17T19:23:59.820Z,25.08
2022-08-17T19:26:53.398Z,24.65
2022-08-17T19:29:22.386Z,25.23
2022-08-17T19:31:50.645Z,25.90
2022-08-17T19:34:30.054Z,27.38
2022-08-17T19:37:03.628Z,25.73
2022-08-17T19:39:41.704Z,25.60
2022-08-17T19:42:14.908Z,26.58
2022-08-17T19:45:00.608Z,27.70
2022-08-17T19:47:58.539Z,28.30
2022-08-17T19:50:39.079Z,29.20
2022-08-17T19:53:41.994Z,25.20
2022-08-17T19:56:31.748Z,25.85
2022-08-17T19:59:10.703Z,29.08
2022-08-17T20:01:38.216Z,27.45
2022-08-17T20:04:12.255Z,41.67
2022-08-17T20:06:41.253Z,30.70
2022-08-17T20:09:15.081Z,27.33
2022-08-17T20:11:47.756Z,31.38
2022-08-17T20:14:18.664Z,27.75
2022-08-17T20:16:46.146Z,30.00
2022-08-17T20:19:13.350Z,29.63
2022-08-17T20:21:50.743Z,30.27
2022-08-17T20:24:26.461Z,27.33
2022-08-17T20:26:59.450Z,33.42
2022-08-17T20:29:39.666Z,32.22
2022-08-17T20:32:28.115Z,31.83
2022-08-17T20:35:08.621Z,32.78
2022-08-17T20:37:37.017Z,34.00
2022-08-17T20:40:09.098Z,33.83
2022-08-17T20:42:37.033Z,32.35
2022-08-17T20:45:26.135Z,33.17
2022-08-17T20:48:30.596Z,33.00
2022-08-17T20:50:52.578Z,34.80
2022-08-17T20:53:38.917Z,35.38
2022-08-17T20:56:06.493Z,34.92
2022-08-17T20:58:38.262Z,33.78
2022-08-17T21:01:13.530Z,36.75
2022-08-17T21:03:50.997Z,36.72
2022-08-17T21:06:20.641Z,38.60
2022-08-17T21:08:59.983Z,36.55
2022-08-17T21:11:57.356Z,39.38
2022-08-17T21:14:32.405Z,38.83
2022-08-17T21:17:15.213Z,38.05
2022-08-17T21:20:10.761Z,37.60
2022-08-17T21:22:38.910Z,38.00
2022-08-17T21:25:24.884Z,41.53
2022-08-17T21:28:16.876Z,41.95
2022-08-17T21:30:51.550Z,42.88
2022-08-17T21:33:32.016Z,43.97
2022-08-17T21:36:15.243Z,41.65
2022-08-17T21:38:57.463Z,42.92
2022-08-17T21:41:31.224Z,46.80
2022-08-17T21:44:12.971Z,45.67
2022-08-17T21:46:46.602Z,50.38
2022-08-17T21:49:16.822Z,47.63
2022-08-17T21:51:46.377Z,47.10
2022-08-17T21:54:32.082Z,48.92
2022-08-17T21:57:02.312Z,47.75
2022-08-17T21:59:38.105Z,51.65
2022-08-17T22:02:10.066Z,50.08
2022-08-17T22:04:38.849Z,50.60
2022-08-17T22:07:09.351Z,53.50
2022-08-17T22:09:46.400Z,56.40
2022-08-17T22:12:21.691Z,55.38
2022-08-17T22:15:00.599Z,57.58
2022-08-17T22:17:46.741Z,59.90
2022-08-17T22:20:21.123Z,58.28
2022-08-17T22:23:12.726Z,63.28
2022-08-17T22:25:57.402Z,54.05
2022-08-17T22:28:52.819Z,55.83
2022-08-17T22:31:22.445Z,54.55
2022-08-17T22:34:09.739Z,56.88
2022-08-17T22:36:39.392Z,60.70
2022-08-17T22:39:09.204Z,58.22
2022-08-17T22:41:51.101Z,58.95
2022-08-17T22:44:31.978Z,54.10
2022-08-17T22:47:16.496Z,53.53
2022-08-17T22:50:00.262Z,53.10
2022-08-17T22:53:16.577Z,56.92
2022-08-17T22:56:13.769Z,54.95
2022-08-17T22:59:17.851Z,51.92
2022-08-17T23:02:05.955Z,57.50
2022-08-17T23:04:36.450Z,51.92
2022-08-17T23:07:03.415Z,51.67
2022-08-17T23:09:30.196Z,56.67
2022-08-17T23:11:58.556Z,48.92
2022-08-17T23:14:31.459Z,51.17
2022-08-17T23:16:59.570Z,51.70
2022-08-17T23:19:27.584Z,46.35
2022-08-17T23:21:56.352Z,49.53
2022-08-17T23:24:26.072Z,53.30
2022-08-17T23:26:53.616Z,48.92
2022-08-17T23:29:24.562Z,51.20
2022-08-17T23:31:55.364Z,55.30
2022-08-17T23:34:23.151Z,58.28
2022-08-17T23:36:53.316Z,52.33
2022-08-17T23:39:28.001Z,54.55
2022-08-17T23:42:00.190Z,55.10
2022-08-17T23:44:29.105Z,51.65
2022-08-17T23:46:56.301Z,53.08
2022-08-17T23:49:25.144Z,49.42
2022-08-17T23:51:55.107Z,45.42
2022-08-17T23:54:29.314Z,46.53
2022-08-17T23:56:56.298Z,47.03
2022-08-17T23:59:23.583Z,47.05
